createdAt,value
2023-03-23T15:59:28.615Z,16.50
2023-03-23T16:02:30.792Z,16.48
2023-03-23T16:05:33.364Z,16.38
2023-03-23T16:08:35.246Z,16.31
2023-03-23T16:11:38.796Z,16.30
2023-03-23T16:14:40.999Z,16.19
2023-03-23T16:17:43.250Z,16.17
2023-03-23T16:20:45.164Z,16.18
2023-03-23T16:23:48.042Z,16.23
2023-03-23T16:26:54.209Z,16.17
2023-03-23T16:30:04.011Z,16.15
2023-03-23T16:33:08.149Z,16.07
2023-03-23T16:36:12.232Z,16.04
2023-03-23T16:39:15.252Z,16.10
2023-03-23T16:42:19.399Z,16.02
2023-03-23T16:45:22.218Z,15.97
2023-03-23T16:48:25.370Z,15.98
2023-03-23T16:51:30.723Z,16.01
2023-03-23T16:54:33.220Z,15.94
2023-03-23T16:57:39.663Z,15.94
2023-03-23T17:00:44.243Z,15.65
2023-03-23T17:03:46.500Z,15.31
2023-03-23T17:06:48.921Z,15.15
2023-03-23T17:09:51.306Z,14.96
2023-03-23T17:12:58.366Z,14.68
2023-03-23T17:16:00.724Z,14.67
2023-03-23T17:19:03.128Z,14.64
2023-03-23T17:22:05.479Z,14.58
2023-03-23T17:25:09.906Z,14.59
2023-03-23T17:28:13.751Z,14.56
2023-03-23T17:31:16.010Z,14.52
2023-03-23T17:34:20.033Z,14.51
2023-03-23T17:37:23.561Z,14.46
2023-03-23T17:40:27.309Z,14.36
2023-03-23T17:43:30.808Z,14.31
2023-03-23T17:46:33.546Z,14.27
2023-03-23T17:49:36.725Z,14.09
2023-03-23T17:52:40.582Z,13.95
2023-03-23T17:55:44.607Z,13.70
2023-03-23T17:58:48.979Z,13.60
2023-03-23T18:01:54.080Z,13.25
2023-03-23T18:04:58.552Z,13.28
2023-03-23T18:08:01.607Z,13.12
2023-03-23T18:11:05.941Z,13.04
2023-03-23T18:14:10.850Z,12.94
2023-03-23T18:17:13.285Z,12.85
2023-03-23T18:20:17.610Z,12.77
2023-03-23T18:23:20.992Z,12.65
2023-03-23T18:26:23.846Z,12.53
2023-03-23T18:29:27.405Z,12.45
2023-03-23T18:32:30.166Z,12.35
2023-03-23T18:35:33.577Z,12.18
2023-03-23T18:38:39.183Z,12.12
2023-03-23T18:41:42.448Z,12.08
2023-03-23T18:44:47.743Z,12.09
2023-03-23T18:47:53.191Z,12.04
2023-03-23T18:51:08.319Z,12.06
2023-03-23T18:54:11.528Z,11.91
2023-03-23T18:57:17.063Z,11.86
2023-03-23T19:00:21.692Z,11.87
2023-03-23T19:03:24.743Z,11.79
2023-03-23T19:06:29.546Z,11.78
2023-03-23T19:09:36.411Z,11.68
2023-03-23T19:12:41.558Z,11.45
2023-03-23T19:15:46.683Z,11.52
2023-03-23T19:18:54.920Z,11.50
2023-03-23T19:21:58.207Z,11.60
2023-03-23T19:25:02.291Z,11.69
2023-03-23T19:31:13.966Z,11.58
2023-03-23T19:34:18.570Z,11.44
2023-03-23T19:37:23.206Z,11.32
2023-03-23T19:40:39.576Z,11.28
2023-03-23T19:43:43.436Z,11.34
2023-03-23T19:46:48.470Z,11.34
2023-03-23T19:49:52.065Z,11.39
2023-03-23T19:52:57.863Z,11.60
2023-03-23T19:56:04.813Z,11.56
2023-03-23T19:59:09.283Z,11.46
2023-03-23T20:02:15.242Z,11.58
2023-03-23T20:05:18.706Z,11.72
2023-03-23T20:08:22.596Z,11.77
2023-03-23T20:11:25.745Z,12.08
2023-03-23T20:14:29.570Z,12.09
2023-03-23T20:17:34.703Z,12.20
2023-03-23T20:20:39.088Z,12.34
2023-03-23T20:23:44.447Z,12.44
2023-03-23T20:26:51.241Z,12.36
2023-03-23T20:29:56.244Z,12.27
2023-03-23T20:33:02.023Z,12.28
2023-03-23T20:36:05.413Z,12.35
2023-03-23T20:39:10.065Z,12.23
2023-03-23T20:42:13.171Z,12.18
2023-03-23T20:45:17.166Z,12.13
2023-03-23T20:48:21.770Z,12.18
2023-03-23T20:51:24.501Z,12.25
2023-03-23T20:54:27.649Z,12.22
2023-03-23T20:57:32.370Z,12.13
2023-03-23T21:00:35.250Z,12.11
2023-03-23T21:03:42.218Z,12.08
2023-03-23T21:06:47.424Z,12.12
2023-03-23T21:09:51.738Z,11.77
2023-03-23T21:12:54.186Z,11.47
2023-03-23T21:15:56.887Z,11.34
2023-03-23T21:19:00.835Z,11.37
2023-03-23T21:22:04.493Z,11.54
2023-03-23T21:25:06.900Z,11.67
2023-03-23T21:28:09.007Z,11.59
2023-03-23T21:31:11.576Z,11.48
2023-03-23T21:34:15.280Z,11.53
2023-03-23T21:37:18.717Z,11.60
2023-03-23T21:40:21.170Z,11.66
2023-03-23T21:43:23.889Z,11.74
2023-03-23T21:46:27.771Z,11.65
2023-03-23T21:49:31.320Z,11.65
2023-03-23T21:52:33.708Z,11.62
2023-03-23T21:55:36.101Z,11.62
2023-03-23T21:58:38.355Z,11.27
2023-03-23T22:01:40.654Z,11.42
2023-03-23T22:04:45.224Z,11.45
2023-03-23T22:07:48.798Z,11.48
2023-03-23T22:11:00.905Z,11.45
2023-03-23T22:14:05.172Z,11.28
2023-03-23T22:17:07.330Z,11.10
2023-03-23T22:20:13.636Z,10.98
2023-03-23T22:23:15.606Z,10.79
2023-03-23T22:26:17.657Z,10.99
2023-03-23T22:29:20.520Z,10.86
2023-03-23T22:32:23.124Z,11.05
2023-03-23T22:35:26.784Z,11.06
2023-03-23T22:38:28.704Z,10.96
2023-03-23T22:41:33.687Z,11.07
2023-03-23T22:44:35.568Z,11.15
2023-03-23T22:47:38.176Z,11.16
2023-03-23T22:50:41.426Z,10.66
2023-03-23T22:53:43.634Z,10.41
2023-03-23T22:56:45.673Z,10.41
2023-03-23T22:59:48.374Z,10.34
2023-03-23T23:02:50.513Z,10.53
2023-03-23T23:05:55.937Z,10.70
2023-03-23T23:08:57.812Z,10.85
2023-03-23T23:11:59.896Z,10.97
2023-03-23T23:15:02.968Z,10.82
2023-03-23T23:18:05.759Z,10.72
2023-03-23T23:21:14.106Z,10.80
2023-03-23T23:24:16.154Z,10.69
2023-03-23T23:27:18.082Z,10.70
2023-03-23T23:30:20.129Z,10.68
2023-03-23T23:33:22.838Z,10.69
2023-03-23T23:36:27.509Z,10.74
2023-03-23T23:39:29.367Z,10.58
2023-03-23T23:42:31.612Z,10.36
2023-03-23T23:45:33.696Z,10.03
2023-03-23T23:48:35.473Z,9.87
2023-03-23T23:51:39.434Z,9.97
2023-03-23T23:54:41.910Z,9.96
2023-03-23T23:57:44.421Z,9.80
